Margate, Florida
Current Conditions -  °F | °C
As of 8:53 AM on Monday 22 Dec 2014 (Local Time) from KFXE Reporting Station
Scattered Clouds Scattered Clouds  
Wind Chill: 76°   Ceiling: Unl
Heat Index: 76°   Visibility: 10mi
Dew Point: 68°   Wind: 5mph
Humidity: 76%   Direction: 170°S
Pressure: 30.04"   Gusts: NA
Location:  26.24°N, 80.2°W
Report Text: KFXE 221353Z 17004KT 10SM SCT040 24/20 A3004 RMK AO2 SLP175 T02440200 $
Loading
Personal Weather Stations






























Interactive Weather Map New forecast layout! Learn more

10-Day Weather Forecast

Advertisements
Track Severe Weather on mobile